Time;durP1;ratioP1;P1;durP2;ratioP2;P2;SDS_P1;SDS_P2;PMS_P1;PMS_P2;Temp;Humidity;BMP_temperature;BMP_pressure;BME280_temperature;BME280_humidity;BME280_pressure;Samples;Min_cycle;Max_cycle;Signal;HPM_P1;HPM_P2
2022/01/01 00:02:26;;;;;;;8.98;3.97;;;11.70;88.70;;;;;;5028049;28;20045;-76
2022/01/01 00:04:59;;;;;;;9.23;3.90;;;11.70;88.70;;;;;;5031965;28;20056;-76
2022/01/01 00:07:26;;;;;;;7.65;3.50;;;11.70;88.70;;;;;;4917356;28;20084;-76
2022/01/01 00:09:53;;;;;;;8.47;3.63;;;11.70;88.70;;;;;;321899;28;10023356;-77
2022/01/01 00:12:26;;;;;;;8.52;4.40;;;11.70;88.70;;;;;;4971328;28;20061;-75
2022/01/01 00:15:01;;;;;;;11.20;5.13;;;11.70;88.70;;;;;;4986563;28;20059;-74
2022/01/01 00:17:34;;;;;;;14.70;5.13;;;11.70;88.70;;;;;;4971838;28;20137;-75
2022/01/01 00:20:01;;;;;;;10.27;5.55;;;11.70;88.70;;;;;;4970614;28;20074;-75
2022/01/01 00:22:29;;;;;;;15.43;7.20;;;11.70;88.90;;;;;;4970584;28;20054;-76
2022/01/01 00:24:56;;;;;;;14.70;7.57;;;11.70;88.90;;;;;;4970711;28;20629;-77
2022/01/01 00:27:23;;;;;;;12.80;6.47;;;11.70;88.90;;;;;;4970143;28;20137;-75
2022/01/01 00:29:49;;;;;;;11.63;5.97;;;11.70;88.80;;;;;;4970864;28;20039;-75
2022/01/01 00:32:18;;;;;;;11.75;6.18;;;11.70;88.90;;;;;;4969580;28;20050;-75
2022/01/01 00:34:45;;;;;;;11.07;5.90;;;11.70;89.00;;;;;;4970778;28;20070;-74
2022/01/01 00:37:12;;;;;;;8.95;4.88;;;11.70;89.00;;;;;;4971044;28;20051;-75
2022/01/01 00:39:39;;;;;;;12.48;5.80;;;11.70;89.00;;;;;;4970950;28;20042;-75
2022/01/01 00:42:06;;;;;;;13.27;5.80;;;11.70;89.00;;;;;;4971168;28;20138;-74
2022/01/01 00:44:33;;;;;;;10.70;4.75;;;11.70;89.00;;;;;;4971086;28;20043;-76
2022/01/01 00:47:00;;;;;;;10.43;5.28;;;11.70;89.00;;;;;;4970460;28;20050;-77
2022/01/01 00:49:30;;;;;;;9.93;5.43;;;11.70;89.00;;;;;;4970595;28;20117;-74
2022/01/01 00:51:57;;;;;;;11.23;5.15;;;11.70;89.10;;;;;;4971318;28;20043;-78
2022/01/01 00:54:24;;;;;;;12.13;5.40;;;11.70;89.00;;;;;;4971724;28;20041;-75
2022/01/01 00:56:52;;;;;;;10.55;6.20;;;11.70;89.00;;;;;;4972414;28;20039;-78
2022/01/01 00:59:19;;;;;;;11.43;6.18;;;11.70;89.10;;;;;;4972545;28;20117;-76
2022/01/01 01:01:46;;;;;;;11.07;6.78;;;11.70;89.00;;;;;;4970370;28;20134;-76
2022/01/01 01:04:13;;;;;;;16.20;8.52;;;11.70;89.00;;;;;;4971225;28;20053;-75
2022/01/01 01:06:42;;;;;;;18.25;9.25;;;11.70;89.00;;;;;;4972242;28;20051;-76
2022/01/01 01:09:09;;;;;;;21.88;10.65;;;11.70;89.00;;;;;;4971839;28;20475;-77
2022/01/01 01:11:42;;;;;;;19.20;10.82;;;11.80;89.00;;;;;;5005990;28;20541;-76
2022/01/01 01:14:18;;;;;;;20.48;12.52;;;11.70;88.90;;;;;;5011076;28;20466;-75
2022/01/01 01:16:45;;;;;;;23.10;12.10;;;11.70;89.00;;;;;;5011392;28;20057;-76
2022/01/01 01:19:12;;;;;;;22.67;12.95;;;11.70;89.00;;;;;;5010506;28;20050;-77
2022/01/01 01:21:39;;;;;;;22.38;13.57;;;11.70;89.10;;;;;;5010664;28;20050;-74
2022/01/01 01:24:08;;;;;;;26.55;14.13;;;11.70;89.00;;;;;;5010571;28;20050;-74
2022/01/01 01:26:34;;;;;;;25.77;13.93;;;11.80;89.00;;;;;;5010081;28;20070;-74
2022/01/01 01:29:03;;;;;;;30.50;14.60;;;11.80;89.00;;;;;;5010194;28;20072;-76
2022/01/01 01:31:37;;;;;;;30.70;16.55;;;11.70;89.00;;;;;;5010220;28;20129;-78
2022/01/01 01:34:04;;;;;;;33.78;17.75;;;11.70;89.10;;;;;;5010053;28;20049;-79
2022/01/01 01:36:31;;;;;;;34.35;17.30;;;11.70;89.10;;;;;;5010302;28;20138;-74
2022/01/01 01:38:58;;;;;;;35.60;17.40;;;11.70;89.10;;;;;;5010593;28;20118;-76
2022/01/01 01:41:29;;;;;;;32.50;16.48;;;11.70;89.10;;;;;;5010553;28;20611;-76
2022/01/01 01:43:57;;;;;;;28.02;16.35;;;11.70;89.10;;;;;;5010202;28;20045;-75
2022/01/01 01:46:25;;;;;;;27.83;15.82;;;11.70;89.20;;;;;;5009568;28;20046;-75
2022/01/01 01:48:52;;;;;;;30.73;14.93;;;11.70;89.10;;;;;;5010566;28;20046;-77
2022/01/01 01:51:19;;;;;;;25.92;14.20;;;11.70;89.00;;;;;;5009838;28;20044;-77
2022/01/01 01:53:46;;;;;;;23.05;14.45;;;11.70;89.10;;;;;;5008205;28;20060;-77
2022/01/01 01:56:13;;;;;;;22.35;12.50;;;11.70;89.10;;;;;;5008932;28;20050;-75
2022/01/01 01:58:43;;;;;;;22.95;13.15;;;11.70;89.10;;;;;;5008334;28;20049;-75
2022/01/01 02:01:20;;;;;;;24.95;13.45;;;11.70;89.10;;;;;;5002110;28;20041;-74
2022/01/01 02:03:48;;;;;;;23.58;13.43;;;11.70;89.20;;;;;;5002807;28;20136;-77
2022/01/01 02:06:16;;;;;;;25.33;13.43;;;11.70;89.10;;;;;;5007603;28;20045;-74
2022/01/01 02:08:44;;;;;;;22.48;13.38;;;11.70;89.10;;;;;;5008277;28;20069;-76
2022/01/01 02:11:12;;;;;;;25.20;13.05;;;11.70;89.20;;;;;;5007348;28;20050;-75
2022/01/01 02:13:59;;;;;;;26.92;14.25;;;11.70;89.20;;;;;;5007634;28;20057;-77
2022/01/01 02:16:35;;;;;;;25.73;13.48;;;11.70;89.20;;;;;;5008295;28;20158;-77
2022/01/01 02:19:01;;;;;;;22.55;13.15;;;11.70;89.20;;;;;;4989446;28;20415;-76
2022/01/01 02:21:31;;;;;;;23.98;12.73;;;11.70;89.20;;;;;;5008289;28;20139;-76
2022/01/01 02:24:00;;;;;;;24.75;12.80;;;11.70;89.20;;;;;;5007642;28;20080;-77
2022/01/01 02:26:31;;;;;;;22.67;12.93;;;11.70;89.20;;;;;;5006816;28;20049;-76
2022/01/01 02:28:59;;;;;;;23.52;12.88;;;11.70;89.20;;;;;;5005976;28;20049;-76
2022/01/01 02:31:27;;;;;;;22.55;11.98;;;11.70;89.10;;;;;;5008607;28;20385;-75
2022/01/01 02:33:55;;;;;;;22.05;12.18;;;11.70;89.10;;;;;;5008708;28;20069;-76
2022/01/01 02:36:35;;;;;;;27.45;12.70;;;11.70;89.10;;;;;;5008654;28;20569;-77
2022/01/01 02:39:10;;;;;;;25.95;13.57;;;11.70;89.10;;;;;;5009569;28;20066;-76
2022/01/01 02:41:37;;;;;;;22.42;11.43;;;11.70;89.10;;;;;;5009188;28;20066;-73
2022/01/01 02:44:05;;;;;;;23.67;12.32;;;11.70;89.10;;;;;;4990858;28;20199;-75
2022/01/01 02:46:33;;;;;;;21.33;11.05;;;11.70;89.10;;;;;;5008670;28;20042;-77
2022/01/01 02:49:00;;;;;;;18.25;10.75;;;11.70;89.10;;;;;;5010171;28;20383;-76
2022/01/01 02:51:34;;;;;;;17.75;10.82;;;11.70;89.00;;;;;;5009661;28;20041;-77
2022/01/01 02:54:01;;;;;;;21.67;10.85;;;11.70;89.00;;;;;;5008336;28;20045;-77
2022/01/01 02:56:29;;;;;;;16.13;9.50;;;11.70;89.00;;;;;;5009110;28;20119;-76
2022/01/01 02:58:56;;;;;;;19.08;9.10;;;11.70;89.00;;;;;;5009644;28;20275;-78
2022/01/01 03:01:23;;;;;;;15.00;8.73;;;11.70;89.00;;;;;;4988463;28;20077;-76
2022/01/01 03:03:50;;;;;;;16.48;7.95;;;11.70;89.00;;;;;;5008765;28;20045;-76
2022/01/01 03:06:19;;;;;;;14.70;6.95;;;11.70;89.00;;;;;;5008700;28;20042;-75
2022/01/01 03:08:55;;;;;;;12.57;7.30;;;11.70;89.00;;;;;;5008425;28;20073;-77
2022/01/01 03:11:23;;;;;;;13.80;6.63;;;11.70;88.90;;;;;;5008402;28;20058;-76
2022/01/01 03:13:50;;;;;;;16.02;6.10;;;11.70;88.90;;;;;;5008547;28;20054;-75
2022/01/01 03:16:17;;;;;;;11.50;5.88;;;11.70;89.00;;;;;;5008237;28;20045;-75
2022/01/01 03:18:44;;;;;;;10.80;5.40;;;11.70;89.00;;;;;;5009043;28;20079;-78
2022/01/01 03:21:14;;;;;;;11.55;5.47;;;11.70;89.00;;;;;;5008403;28;20042;-74
2022/01/01 03:23:41;;;;;;;10.75;4.75;;;11.60;89.10;;;;;;5008918;28;20522;-76
2022/01/01 03:26:13;;;;;;;8.93;4.57;;;11.70;89.20;;;;;;5008616;28;20057;-75
2022/01/01 03:28:40;;;;;;;11.15;4.05;;;11.70;89.10;;;;;;5008790;28;20076;-75
2022/01/01 03:31:07;;;;;;;7.53;4.45;;;11.70;89.10;;;;;;5009283;28;20108;-77
2022/01/01 03:33:33;;;;;;;8.68;3.97;;;11.70;89.10;;;;;;4997524;28;20354;-77
2022/01/01 03:36:00;;;;;;;8.68;4.13;;;11.70;89.10;;;;;;5006926;28;20049;-76
2022/01/01 03:38:29;;;;;;;8.50;4.07;;;11.70;89.10;;;;;;5006295;28;20597;-76
2022/01/01 03:40:56;;;;;;;6.32;3.25;;;11.70;89.10;;;;;;5006721;28;20041;-78
2022/01/01 03:43:25;;;;;;;8.75;3.90;;;11.70;89.10;;;;;;5006571;28;20037;-76
2022/01/01 03:45:52;;;;;;;5.93;3.00;;;11.70;89.10;;;;;;5007457;28;20056;-77
2022/01/01 03:48:19;;;;;;;8.55;3.83;;;11.70;89.10;;;;;;5007117;28;20054;-76
2022/01/01 03:50:46;;;;;;;6.93;3.42;;;11.70;89.10;;;;;;5008748;28;20092;-77
2022/01/01 03:53:13;;;;;;;6.05;2.92;;;11.60;89.10;;;;;;5009287;28;20463;-76
2022/01/01 03:55:40;;;;;;;6.68;3.10;;;11.60;89.10;;;;;;5010113;28;20133;-78
2022/01/01 03:58:07;;;;;;;6.57;3.13;;;11.60;89.10;;;;;;4992792;28;20137;-77
2022/01/01 04:00:39;;;;;;;6.53;3.17;;;11.70;89.10;;;;;;5007467;28;20116;-76
2022/01/01 04:03:07;;;;;;;8.13;2.55;;;11.60;89.20;;;;;;5010390;28;20104;-75
2022/01/01 04:05:35;;;;;;;6.50;2.63;;;11.70;89.10;;;;;;5010435;28;20104;-76
2022/01/01 04:08:02;;;;;;;6.55;3.33;;;11.70;89.10;;;;;;5010009;28;20072;-77
2022/01/01 04:10:37;;;;;;;5.95;2.78;;;11.70;89.00;;;;;;5008950;28;20049;-75
2022/01/01 04:13:05;;;;;;;5.75;3.13;;;11.70;89.00;;;;;;5012348;28;20042;-76
2022/01/01 04:15:34;;;;;;;7.95;3.10;;;11.70;89.10;;;;;;5012230;28;20052;-76
2022/01/01 04:18:09;;;;;;;8.05;3.22;;;11.70;89.00;;;;;;5011944;28;20045;-78
2022/01/01 04:20:36;;;;;;;7.85;3.47;;;11.70;89.00;;;;;;5012084;28;20049;-75
2022/01/01 04:23:08;;;;;;;6.30;3.10;;;11.60;89.10;;;;;;5011975;28;20052;-74
2022/01/01 04:25:35;;;;;;;9.43;3.90;;;11.70;89.10;;;;;;5011794;28;20046;-77
2022/01/01 04:28:02;;;;;;;5.90;3.15;;;11.60;89.00;;;;;;5011473;28;20033;-77
2022/01/01 04:30:30;;;;;;;6.18;3.13;;;11.60;89.10;;;;;;5011860;28;20049;-76
2022/01/01 04:32:57;;;;;;;6.15;2.92;;;11.60;89.10;;;;;;5012142;28;20072;-76
2022/01/01 04:35:26;;;;;;;7.22;3.67;;;11.60;89.00;;;;;;5011305;28;20050;-76
2022/01/01 04:37:53;;;;;;;9.70;3.40;;;11.70;89.00;;;;;;5011364;28;20046;-77
2022/01/01 04:40:20;;;;;;;7.35;3.10;;;11.70;89.00;;;;;;5010593;28;20053;-76
2022/01/01 04:42:47;;;;;;;7.78;3.35;;;11.60;89.00;;;;;;5011500;28;20104;-77
2022/01/01 04:45:14;;;;;;;7.10;3.13;;;11.60;89.00;;;;;;5010987;28;20053;-77
2022/01/01 04:47:41;;;;;;;7.47;3.00;;;11.60;89.10;;;;;;5011573;28;20046;-79
2022/01/01 04:50:09;;;;;;;6.38;2.85;;;11.60;89.10;;;;;;5011031;28;20108;-76
2022/01/01 04:52:37;;;;;;;9.70;3.10;;;11.60;89.10;;;;;;5011047;28;20428;-75
2022/01/01 04:55:05;;;;;;;5.90;3.10;;;11.60;89.00;;;;;;5010397;28;20518;-76
2022/01/01 04:57:32;;;;;;;6.18;2.70;;;11.60;89.10;;;;;;5011374;28;20034;-75
2022/01/01 04:59:59;;;;;;;6.35;3.50;;;11.60;89.00;;;;;;5011267;28;20061;-75
2022/01/01 05:02:26;;;;;;;7.20;3.22;;;11.60;89.10;;;;;;5007958;28;20052;-78
2022/01/01 05:04:54;;;;;;;8.18;3.40;;;11.60;89.00;;;;;;5008404;28;20057;-77
2022/01/01 05:07:21;;;;;;;6.65;3.53;;;11.60;89.00;;;;;;5011650;28;20042;-77
2022/01/01 05:09:49;;;;;;;7.40;3.22;;;11.60;89.00;;;;;;5009107;28;20053;-78
2022/01/01 05:12:18;;;;;;;6.15;3.13;;;11.60;89.00;;;;;;5009794;28;20041;-76
2022/01/01 05:14:45;;;;;;;6.00;3.05;;;11.60;89.00;;;;;;5008873;28;20046;-78
2022/01/01 05:17:14;;;;;;;6.35;3.25;;;11.60;89.10;;;;;;5008603;28;20077;-75
2022/01/01 05:19:41;;;;;;;7.60;3.30;;;11.60;89.10;;;;;;5006349;28;20323;-78
2022/01/01 05:22:08;;;;;;;8.88;3.17;;;11.60;89.00;;;;;;5008826;28;20041;-75
2022/01/01 05:24:35;;;;;;;7.03;3.47;;;11.60;89.00;;;;;;5009224;28;20046;-77
2022/01/01 05:27:04;;;;;;;6.50;3.28;;;11.60;89.00;;;;;;5008124;28;20041;-77
2022/01/01 05:29:31;;;;;;;8.50;3.75;;;11.60;89.00;;;;;;5007227;28;20389;-78
2022/01/01 05:31:58;;;;;;;7.43;3.30;;;11.60;89.00;;;;;;5007967;28;20172;-75
2022/01/01 05:34:25;;;;;;;6.40;3.20;;;11.60;89.00;;;;;;5008273;28;20532;-77
2022/01/01 05:36:53;;;;;;;5.32;2.90;;;11.60;89.00;;;;;;5007900;28;20048;-76
2022/01/01 05:39:20;;;;;;;8.13;3.58;;;11.60;89.00;;;;;;5008530;28;20042;-76
2022/01/01 05:41:48;;;;;;;9.90;3.08;;;11.60;89.00;;;;;;5007321;28;20041;-76
2022/01/01 05:44:16;;;;;;;9.50;2.90;;;11.60;89.00;;;;;;5008312;28;20117;-77
2022/01/01 05:46:43;;;;;;;5.82;3.10;;;11.60;89.00;;;;;;5008336;28;20124;-77
2022/01/01 05:49:10;;;;;;;7.78;3.20;;;11.60;89.00;;;;;;5007563;28;20507;-75
2022/01/01 05:51:37;;;;;;;8.43;4.10;;;11.50;89.00;;;;;;5008576;28;20392;-77
2022/01/01 05:54:06;;;;;;;8.95;3.58;;;11.60;89.00;;;;;;4991752;28;20050;-78
2022/01/01 05:56:32;;;;;;;7.63;3.53;;;11.50;89.00;;;;;;5009966;28;20085;-76
2022/01/01 05:58:59;;;;;;;7.90;3.50;;;11.50;89.00;;;;;;5009966;28;20038;-76
2022/01/01 06:01:28;;;;;;;8.93;3.83;;;11.60;89.00;;;;;;5007457;28;20050;-76
2022/01/01 06:03:54;;;;;;;7.28;3.78;;;11.50;89.00;;;;;;5009553;28;20038;-76
2022/01/01 06:06:21;;;;;;;8.45;3.70;;;11.50;89.00;;;;;;5009478;28;20054;-77
2022/01/01 06:08:48;;;;;;;7.43;3.65;;;11.50;89.00;;;;;;5009582;28;20050;-77
2022/01/01 06:11:15;;;;;;;7.53;3.50;;;11.50;89.00;;;;;;5009074;28;20084;-76
2022/01/01 06:13:42;;;;;;;9.65;3.60;;;11.50;89.00;;;;;;5009576;28;20052;-75
2022/01/01 06:16:09;;;;;;;7.70;3.35;;;11.50;89.00;;;;;;5009520;28;20121;-76
2022/01/01 06:18:37;;;;;;;7.80;3.70;;;11.50;89.00;;;;;;5010174;28;20050;-77
2022/01/01 06:21:04;;;;;;;7.28;3.22;;;11.50;89.00;;;;;;5008568;28;20041;-78
2022/01/01 06:23:33;;;;;;;9.18;3.42;;;11.50;89.00;;;;;;5009134;28;20046;-76
2022/01/01 06:26:00;;;;;;;6.93;3.33;;;11.50;89.00;;;;;;5008493;28;20042;-78
2022/01/01 06:28:31;;;;;;;8.40;4.07;;;11.50;89.00;;;;;;5008921;28;20482;-75
2022/01/01 06:30:58;;;;;;;8.13;3.95;;;11.50;89.00;;;;;;5009711;28;20053;-76
2022/01/01 06:33:25;;;;;;;9.38;3.90;;;11.50;89.00;;;;;;5008983;28;20038;-75
2022/01/01 06:35:55;;;;;;;7.32;3.38;;;11.50;88.90;;;;;;5009859;28;20042;-75
2022/01/01 06:38:22;;;;;;;7.22;3.65;;;11.60;88.90;;;;;;5007889;28;20504;-76
2022/01/01 06:40:49;;;;;;;7.00;3.25;;;11.50;88.90;;;;;;5009345;28;20046;-76
2022/01/01 06:43:18;;;;;;;7.93;3.75;;;11.50;88.80;;;;;;5009243;28;20550;-76
2022/01/01 06:45:45;;;;;;;10.85;4.47;;;11.50;88.80;;;;;;5010032;28;20041;-76
2022/01/01 06:48:12;;;;;;;8.38;4.45;;;11.50;88.80;;;;;;5008630;28;20046;-77
2022/01/01 06:50:39;;;;;;;11.57;4.55;;;11.50;88.80;;;;;;5009527;28;20050;-78
2022/01/01 06:53:07;;;;;;;8.98;4.50;;;11.50;88.80;;;;;;5007486;28;20057;-76
2022/01/01 06:55:34;;;;;;;8.02;4.10;;;11.50;88.80;;;;;;5006619;28;20045;-76
2022/01/01 06:58:01;;;;;;;9.40;4.30;;;11.50;88.80;;;;;;5007371;28;20046;-77
2022/01/01 07:00:29;;;;;;;9.57;3.78;;;11.50;88.70;;;;;;5004367;28;20085;-78
2022/01/01 07:02:56;;;;;;;9.38;4.10;;;11.50;88.80;;;;;;5000830;28;20053;-75
2022/01/01 07:05:23;;;;;;;7.95;3.35;;;11.50;88.80;;;;;;5007464;28;20481;-75
2022/01/01 07:07:50;;;;;;;7.50;3.67;;;11.40;88.70;;;;;;5007091;28;20050;-74
2022/01/01 07:10:18;;;;;;;7.93;3.72;;;11.40;88.70;;;;;;5006177;28;20065;-75
2022/01/01 07:12:45;;;;;;;6.43;3.47;;;11.40;88.70;;;;;;5006093;28;20050;-77
2022/01/01 07:15:13;;;;;;;8.85;3.83;;;11.40;88.70;;;;;;5007268;28;20531;-76
2022/01/01 07:17:40;;;;;;;11.43;3.78;;;11.40;88.70;;;;;;5007049;28;20112;-76
2022/01/01 07:20:08;;;;;;;7.22;3.65;;;11.40;88.80;;;;;;5006798;28;20038;-75
2022/01/01 07:22:39;;;;;;;7.97;4.00;;;11.40;88.70;;;;;;5005665;28;20046;-78
2022/01/01 07:25:07;;;;;;;7.13;3.20;;;11.40;88.70;;;;;;5007597;28;20038;-75
2022/01/01 07:27:36;;;;;;;8.45;4.50;;;11.40;88.70;;;;;;5010107;28;20383;-77
2022/01/01 07:30:03;;;;;;;8.10;3.97;;;11.40;88.70;;;;;;5010560;28;20583;-76
2022/01/01 07:32:30;;;;;;;9.35;3.72;;;11.40;88.70;;;;;;5012552;28;20116;-77
2022/01/01 07:34:57;;;;;;;9.43;4.03;;;11.40;88.70;;;;;;5011593;28;20052;-78
2022/01/01 07:37:24;;;;;;;9.55;3.58;;;11.40;88.70;;;;;;5013272;28;20053;-77
2022/01/01 07:39:51;;;;;;;8.20;3.95;;;11.40;88.70;;;;;;5012348;28;20563;-77
2022/01/01 07:42:18;;;;;;;7.18;3.65;;;11.40;88.80;;;;;;5012765;28;20136;-77
2022/01/01 07:44:46;;;;;;;9.77;4.57;;;11.50;88.80;;;;;;5012820;28;20054;-78
2022/01/01 07:47:13;;;;;;;8.75;3.90;;;11.40;88.70;;;;;;5011975;28;20056;-77
2022/01/01 07:49:42;;;;;;;11.40;3.90;;;11.40;88.70;;;;;;5012280;28;20046;-74
2022/01/01 07:52:09;;;;;;;10.13;3.92;;;11.40;88.70;;;;;;5011835;28;20101;-77
2022/01/01 07:54:36;;;;;;;8.38;4.38;;;11.40;88.70;;;;;;5011464;28;20053;-76
2022/01/01 07:57:03;;;;;;;9.75;3.83;;;11.40;88.70;;;;;;5012374;28;20052;-75
2022/01/01 07:59:30;;;;;;;8.20;4.00;;;11.40;88.70;;;;;;5012269;28;20050;-75
2022/01/01 08:01:58;;;;;;;8.82;3.95;;;11.40;88.70;;;;;;5009024;28;20048;-76
2022/01/01 08:04:25;;;;;;;9.45;3.72;;;11.40;88.70;;;;;;5011685;28;20041;-76
2022/01/01 08:06:52;;;;;;;9.48;3.63;;;11.40;88.70;;;;;;5011565;28;20385;-75
2022/01/01 08:09:19;;;;;;;11.43;4.30;;;11.50;88.70;;;;;;5011490;28;20057;-76
2022/01/01 08:11:46;;;;;;;7.53;3.85;;;11.50;88.70;;;;;;5012280;28;20401;-75
2022/01/01 08:14:13;;;;;;;13.18;4.75;;;11.50;88.70;;;;;;5011877;28;20034;-76
2022/01/01 08:16:55;;;;;;;7.25;3.70;;;11.50;88.70;;;;;;5002528;28;20045;-76
2022/01/01 08:19:23;;;;;;;12.80;4.00;;;11.50;88.70;;;;;;5012266;28;20068;-78
2022/01/01 08:21:50;;;;;;;8.25;4.15;;;11.50;88.70;;;;;;5011205;28;20042;-76
2022/01/01 08:24:17;;;;;;;10.23;4.20;;;11.50;88.70;;;;;;5011902;28;20053;-76
2022/01/01 08:26:44;;;;;;;9.40;3.75;;;11.50;88.70;;;;;;5010983;28;20061;-77
2022/01/01 08:29:12;;;;;;;8.35;3.97;;;11.50;88.70;;;;;;5011187;28;20042;-76
2022/01/01 08:31:39;;;;;;;10.43;4.50;;;11.50;88.70;;;;;;5010620;28;20377;-74
2022/01/01 08:34:06;;;;;;;11.00;4.22;;;11.50;88.70;;;;;;5009570;28;20094;-76
2022/01/01 08:36:35;;;;;;;7.55;4.03;;;11.50;88.70;;;;;;5009019;28;20602;-74
2022/01/01 08:39:02;;;;;;;9.77;4.07;;;11.50;88.60;;;;;;5007526;28;20053;-76
2022/01/01 08:41:32;;;;;;;8.82;3.92;;;11.60;88.60;;;;;;5009694;28;20053;-76
2022/01/01 08:43:59;;;;;;;8.40;4.40;;;11.60;88.60;;;;;;5009772;28;20046;-76
2022/01/01 08:46:26;;;;;;;9.85;4.45;;;11.60;88.60;;;;;;5009476;28;20046;-74
2022/01/01 08:48:53;;;;;;;8.88;3.78;;;11.60;88.60;;;;;;5009900;28;20076;-77
2022/01/01 08:51:21;;;;;;;7.10;4.50;;;11.60;88.60;;;;;;5009902;28;20050;-78
2022/01/01 08:53:50;;;;;;;8.27;4.40;;;11.60;88.60;;;;;;4990239;28;20733;-75
2022/01/01 08:56:17;;;;;;;8.00;4.03;;;11.60;88.60;;;;;;5009488;28;20129;-75
2022/01/01 08:58:47;;;;;;;10.43;4.43;;;11.60;88.60;;;;;;5010017;28;20492;-76
2022/01/01 09:01:14;;;;;;;14.77;4.90;;;11.60;88.60;;;;;;5007530;28;20068;-73
2022/01/01 09:03:42;;;;;;;10.68;4.63;;;11.70;88.60;;;;;;5008687;28;20457;-72
2022/01/01 09:06:10;;;;;;;9.23;4.35;;;11.70;88.60;;;;;;5009474;28;20045;-73
2022/01/01 09:08:40;;;;;;;14.48;4.43;;;11.60;88.50;;;;;;5009717;28;20069;-73
2022/01/01 09:11:10;;;;;;;10.93;4.75;;;11.70;88.60;;;;;;5009473;28;20056;-72
2022/01/01 09:13:41;;;;;;;8.13;4.25;;;11.70;88.60;;;;;;5010605;28;20042;-72
2022/01/01 09:16:10;;;;;;;9.38;4.32;;;11.70;88.50;;;;;;5010625;28;20488;-72
2022/01/01 09:18:38;;;;;;;8.37;4.07;;;11.70;88.50;;;;;;5011814;28;20057;-73
2022/01/01 09:21:05;;;;;;;7.70;4.38;;;11.70;88.50;;;;;;5010677;28;20041;-72
2022/01/01 09:23:32;;;;;;;10.05;4.22;;;11.70;88.50;;;;;;5010376;28;20042;-73
2022/01/01 09:26:01;;;;;;;12.20;4.80;;;11.70;88.50;;;;;;5010662;28;20607;-72
2022/01/01 09:28:29;;;;;;;10.93;4.07;;;11.70;88.50;;;;;;5010132;28;20042;-74
2022/01/01 09:30:56;;;;;;;8.88;3.80;;;11.70;88.50;;;;;;5010870;28;20042;-75
2022/01/01 09:33:27;;;;;;;9.55;4.10;;;11.70;88.40;;;;;;5009714;28;20431;-72
2022/01/01 09:35:54;;;;;;;6.78;4.07;;;11.70;88.50;;;;;;5011116;28;20496;-72
2022/01/01 09:38:21;;;;;;;9.35;4.22;;;11.70;88.40;;;;;;5009892;28;20183;-72
2022/01/01 09:40:49;;;;;;;10.85;4.50;;;11.70;88.40;;;;;;5009542;28;20050;-72
2022/01/01 09:43:17;;;;;;;12.23;5.25;;;11.70;88.40;;;;;;5007025;28;20400;-73
2022/01/01 09:45:46;;;;;;;10.00;4.05;;;11.70;88.40;;;;;;5009970;28;20048;-71
2022/01/01 09:48:13;;;;;;;10.88;3.95;;;11.70;88.30;;;;;;5005896;28;20050;-74
2022/01/01 09:50:41;;;;;;;10.93;4.30;;;11.70;88.30;;;;;;5009363;28;20144;-74
2022/01/01 09:53:08;;;;;;;8.88;4.45;;;11.80;88.20;;;;;;5010185;28;20052;-73
2022/01/01 09:55:36;;;;;;;12.35;4.43;;;11.80;88.20;;;;;;5008590;28;20053;-72
2022/01/01 09:58:02;;;;;;;11.27;4.45;;;11.80;88.30;;;;;;5009121;28;20381;-72
2022/01/01 10:00:30;;;;;;;15.73;5.60;;;11.80;88.20;;;;;;5007099;28;20049;-74
2022/01/01 10:02:58;;;;;;;15.23;5.95;;;11.80;88.20;;;;;;5009500;28;20045;-75
2022/01/01 10:05:25;;;;;;;11.45;5.47;;;11.80;88.20;;;;;;5010218;28;20049;-71
2022/01/01 10:07:52;;;;;;;15.38;5.57;;;11.80;88.20;;;;;;5008977;28;20048;-73
2022/01/01 10:10:22;;;;;;;11.20;4.80;;;11.80;88.10;;;;;;5009070;28;20050;-72
2022/01/01 10:12:49;;;;;;;10.82;4.78;;;11.90;88.20;;;;;;5007494;28;20038;-75
2022/01/01 10:15:16;;;;;;;10.75;4.60;;;11.90;88.10;;;;;;4989616;28;20399;-72
2022/01/01 10:17:44;;;;;;;10.30;4.85;;;11.90;88.00;;;;;;5006795;28;20086;-74
2022/01/01 10:20:13;;;;;;;12.35;5.13;;;11.90;88.10;;;;;;5007711;28;20078;-72
2022/01/01 10:22:40;;;;;;;9.25;4.20;;;11.90;88.00;;;;;;5007378;28;20050;-73
2022/01/01 10:27:56;;;;;;;12.02;4.43;;;11.90;88.00;;;;;;5008458;28;20053;-73
2022/01/01 10:30:30;;;;;;;10.10;4.35;;;11.90;88.00;;;;;;5006718;28;20046;-72
2022/01/01 10:33:09;;;;;;;7.15;3.70;;;11.90;88.00;;;;;;5007600;28;20144;-73
2022/01/01 10:35:40;;;;;;;11.50;4.65;;;11.90;88.00;;;;;;5008254;28;20131;-71
2022/01/01 10:38:11;;;;;;;8.52;4.00;;;11.90;87.90;;;;;;5007126;28;20093;-72
2022/01/01 10:40:39;;;;;;;9.07;4.65;;;11.90;87.90;;;;;;5007764;28;20133;-73
2022/01/01 10:43:06;;;;;;;10.48;4.32;;;11.90;87.90;;;;;;5006953;28;20484;-71
2022/01/01 10:45:36;;;;;;;8.80;4.47;;;12.00;87.90;;;;;;5007625;28;20046;-74
2022/01/01 10:48:17;;;;;;;8.98;4.63;;;11.90;87.90;;;;;;5007496;28;20045;-73
2022/01/01 10:50:46;;;;;;;12.52;5.10;;;11.90;87.80;;;;;;4999028;28;20054;-73
2022/01/01 10:53:15;;;;;;;9.95;4.00;;;12.00;87.80;;;;;;5008281;28;20068;-72
2022/01/01 10:55:46;;;;;;;8.82;4.40;;;12.00;87.80;;;;;;5008888;28;20068;-73
2022/01/01 10:58:21;;;;;;;9.05;4.28;;;12.00;87.80;;;;;;5009046;28;20060;-71
2022/01/01 11:00:48;;;;;;;8.93;4.13;;;12.10;87.80;;;;;;5006500;28;20038;-72
2022/01/01 11:03:18;;;;;;;9.77;4.35;;;12.10;87.70;;;;;;5009619;28;20052;-73
2022/01/01 11:05:48;;;;;;;9.32;4.20;;;12.10;87.50;;;;;;5008909;28;20125;-72
2022/01/01 11:08:15;;;;;;;8.67;4.40;;;12.10;87.50;;;;;;5008703;28;20052;-73
2022/01/01 11:10:44;;;;;;;8.02;4.30;;;12.20;87.60;;;;;;5009247;28;20080;-72
2022/01/01 11:13:12;;;;;;;9.77;4.28;;;12.20;87.40;;;;;;5008167;28;20045;-73
2022/01/01 11:15:39;;;;;;;7.88;3.47;;;12.20;87.40;;;;;;5008170;28;20495;-73
2022/01/01 11:18:07;;;;;;;9.70;4.78;;;12.20;87.30;;;;;;5008969;28;20124;-72
2022/01/01 11:20:36;;;;;;;8.43;4.50;;;12.20;87.20;;;;;;5008516;28;20121;-72
2022/01/01 11:23:07;;;;;;;9.00;3.92;;;12.20;87.10;;;;;;5007921;28;20069;-73
2022/01/01 11:25:35;;;;;;;10.77;3.78;;;12.20;87.20;;;;;;5009040;28;20065;-74
2022/01/01 11:28:04;;;;;;;8.13;3.70;;;12.20;87.20;;;;;;5008904;28;20038;-73
2022/01/01 11:30:31;;;;;;;9.38;4.43;;;12.30;87.10;;;;;;5008815;28;20208;-72
2022/01/01 11:33:04;;;;;;;8.73;4.00;;;12.20;87.10;;;;;;5008990;28;20477;-73
2022/01/01 11:35:33;;;;;;;7.75;3.83;;;12.30;87.20;;;;;;5009034;28;20056;-75
2022/01/01 11:38:07;;;;;;;9.43;4.30;;;12.30;87.10;;;;;;5009354;28;20112;-72
2022/01/01 11:40:55;;;;;;;7.95;4.10;;;12.30;87.00;;;;;;5008285;28;20092;-73
2022/01/01 11:43:47;;;;;;;8.13;3.63;;;12.30;87.20;;;;;;4990517;28;20054;-71
2022/01/01 11:46:16;;;;;;;8.90;4.22;;;12.20;87.10;;;;;;4990017;28;20132;-72
2022/01/01 11:48:46;;;;;;;7.60;3.88;;;12.20;87.00;;;;;;5008183;28;20067;-72
2022/01/01 11:51:32;;;;;;;8.57;3.83;;;12.20;87.10;;;;;;5007554;28;20190;-74
2022/01/01 11:54:24;;;;;;;9.73;4.63;;;12.20;87.10;;;;;;5007939;28;20483;-74
2022/01/01 11:57:10;;;;;;;10.20;5.28;;;12.20;87.10;;;;;;5007058;28;20046;-73
2022/01/01 11:59:46;;;;;;;16.17;7.20;;;12.20;87.20;;;;;;4974820;28;20133;-73
2022/01/01 12:02:33;;;;;;;15.15;7.30;;;12.20;87.10;;;;;;5004853;28;20264;-72
2022/01/01 12:05:12;;;;;;;17.95;7.25;;;12.20;87.10;;;;;;5006073;28;20092;-73
2022/01/01 12:07:48;;;;;;;17.33;7.37;;;12.30;87.10;;;;;;5007188;28;20430;-72
2022/01/01 12:10:23;;;;;;;14.93;7.88;;;12.20;87.10;;;;;;5006472;28;20058;-72
2022/01/01 12:12:51;;;;;;;11.88;5.97;;;12.30;87.20;;;;;;5009949;28;20508;-72
2022/01/01 12:15:26;;;;;;;13.05;6.22;;;12.30;87.20;;;;;;5010817;28;20073;-73
2022/01/01 12:17:57;;;;;;;15.65;7.10;;;12.20;87.00;;;;;;5010910;28;20042;-72
2022/01/01 12:20:26;;;;;;;13.13;6.68;;;12.30;87.10;;;;;;5010546;28;20180;-73
2022/01/01 12:22:54;;;;;;;15.68;7.25;;;12.30;86.90;;;;;;5010677;28;20045;-72
2022/01/01 12:25:25;;;;;;;17.92;7.35;;;12.30;87.00;;;;;;5009458;28;20038;-72
2022/01/01 12:27:54;;;;;;;18.80;8.88;;;12.30;86.90;;;;;;5010383;28;20048;-72
2022/01/01 12:30:36;;;;;;;20.45;10.65;;;12.30;86.80;;;;;;5009987;28;20050;-72
2022/01/01 12:33:03;;;;;;;19.13;9.35;;;12.30;86.90;;;;;;5012228;28;20125;-72
2022/01/01 12:35:47;;;;;;;18.30;9.38;;;12.30;86.90;;;;;;5011741;28;20063;-73
2022/01/01 12:38:16;;;;;;;14.77;7.97;;;12.40;86.90;;;;;;5011740;28;20493;-73
2022/01/01 12:40:59;;;;;;;15.95;7.50;;;12.40;86.90;;;;;;5011761;28;20050;-72
2022/01/01 12:43:27;;;;;;;17.50;7.40;;;12.40;86.80;;;;;;5011535;28;20129;-73
2022/01/01 12:45:56;;;;;;;15.13;6.18;;;12.40;86.70;;;;;;5012103;28;20133;-71
2022/01/01 12:48:24;;;;;;;14.82;6.55;;;12.40;86.70;;;;;;5011319;28;20077;-72
2022/01/01 12:50:59;;;;;;;12.80;5.13;;;12.50;86.80;;;;;;5011393;28;20049;-72
2022/01/01 12:53:27;;;;;;;8.77;4.43;;;12.50;86.60;;;;;;5011507;28;20065;-72